createdAt,value
2018-10-17T00:00:44.341Z,20
2018-10-17T00:05:46.763Z,18
2018-10-17T00:10:49.183Z,20
2018-10-17T00:15:51.610Z,18
2018-10-17T00:20:54.124Z,19
2018-10-17T00:25:56.505Z,17
2018-10-17T00:30:58.955Z,19
2018-10-17T00:36:01.396Z,19
2018-10-17T00:41:03.960Z,17
2018-10-17T00:46:06.278Z,15
2018-10-17T00:51:08.716Z,16
2018-10-17T00:56:11.150Z,15
2018-10-17T01:01:13.672Z,14
2018-10-17T01:06:16.022Z,15
2018-10-17T01:11:18.464Z,16
2018-10-17T01:16:20.916Z,16
2018-10-17T01:21:23.354Z,16
2018-10-17T01:26:25.780Z,14
2018-10-17T01:31:28.224Z,15
2018-10-17T01:36:30.719Z,16
2018-10-17T01:41:33.097Z,17
2018-10-17T01:46:35.528Z,15
2018-10-17T01:51:37.983Z,15
2018-10-17T01:56:40.541Z,14
2018-10-17T02:01:42.860Z,14
2018-10-17T02:06:45.301Z,15
2018-10-17T02:11:47.761Z,16
2018-10-17T02:16:50.184Z,18
2018-10-17T02:21:52.618Z,16
2018-10-17T02:26:55.073Z,15
2018-10-17T02:31:57.510Z,15
2018-10-17T02:36:59.976Z,15
2018-10-17T02:42:02.412Z,15
2018-10-17T02:47:04.869Z,15
2018-10-17T02:52:07.288Z,17
2018-10-17T02:57:09.708Z,16
2018-10-17T03:02:12.151Z,15
2018-10-17T03:07:14.642Z,16
2018-10-17T03:12:17.032Z,17
2018-10-17T03:17:20.130Z,16
2018-10-17T03:22:21.920Z,16
2018-10-17T03:27:24.354Z,16
2018-10-17T03:32:26.816Z,19
2018-10-17T03:37:29.244Z,17
2018-10-17T03:42:31.691Z,20
2018-10-17T03:47:34.232Z,18
2018-10-17T03:52:36.577Z,18
2018-10-17T03:57:38.996Z,17
2018-10-17T04:02:41.539Z,16
2018-10-17T04:07:43.985Z,15
2018-10-17T04:12:46.354Z,15
2018-10-17T04:17:48.754Z,15
2018-10-17T04:22:51.411Z,15
2018-10-17T04:27:53.661Z,14
2018-10-17T04:32:56.133Z,14
2018-10-17T04:38:03.811Z,16
2018-10-17T04:43:01.015Z,17
2018-10-17T04:48:03.394Z,19
2018-10-17T04:53:05.989Z,18
2018-10-17T04:58:08.297Z,17
2018-10-17T05:03:10.710Z,16
2018-10-17T05:08:13.159Z,15
2018-10-17T05:13:15.713Z,17
2018-10-17T05:18:18.042Z,17
2018-10-17T05:23:20.474Z,15
2018-10-17T05:28:22.940Z,17
2018-10-17T05:33:25.369Z,17
2018-10-17T05:38:27.791Z,15
2018-10-17T05:43:30.236Z,16
2018-10-17T05:48:32.682Z,18
2018-10-17T05:53:35.115Z,19
2018-10-17T05:58:37.567Z,18
2018-10-17T06:03:40.005Z,16
2018-10-17T06:08:42.434Z,16
2018-10-17T06:13:44.881Z,17
2018-10-17T06:18:47.309Z,17
2018-10-17T06:23:50.147Z,17
2018-10-17T06:28:52.211Z,19
2018-10-17T06:33:54.717Z,18
2018-10-17T06:38:57.073Z,20
2018-10-17T06:43:59.598Z,19
2018-10-17T06:49:02.074Z,18
2018-10-17T06:54:04.495Z,19
2018-10-17T06:59:06.952Z,21
2018-10-17T07:04:09.281Z,21
2018-10-17T07:09:11.722Z,19
2018-10-17T07:14:14.167Z,41
2018-10-17T07:19:16.651Z,19
2018-10-17T07:24:19.032Z,24
2018-10-17T07:29:21.619Z,20
2018-10-17T07:34:23.913Z,22
2018-10-17T07:39:26.360Z,20
2018-10-17T07:44:28.806Z,21
2018-10-17T07:49:31.247Z,19
2018-10-17T07:54:33.686Z,19
2018-10-17T07:59:36.644Z,22
2018-10-17T08:04:38.824Z,21
2018-10-17T08:09:41.006Z,20
2018-10-17T08:14:43.454Z,18
2018-10-17T08:19:45.885Z,19
2018-10-17T08:24:48.331Z,19
2018-10-17T08:29:50.802Z,17
2018-10-17T08:34:53.199Z,17
2018-10-17T08:39:55.644Z,18
2018-10-17T08:44:58.226Z,17
2018-10-17T08:50:00.573Z,17
2018-10-17T08:55:02.969Z,18
2018-10-17T09:00:05.462Z,16
2018-10-17T09:05:07.844Z,18
2018-10-17T09:10:10.375Z,18
2018-10-17T09:15:12.730Z,20
2018-10-17T09:20:15.417Z,21
2018-10-17T09:25:17.715Z,21
2018-10-17T09:30:20.304Z,20
2018-10-17T09:35:22.536Z,21
2018-10-17T09:40:24.938Z,20
2018-10-17T09:45:27.473Z,20
2018-10-17T09:50:29.823Z,20
2018-10-17T09:55:32.252Z,18
2018-10-17T10:00:34.739Z,18
2018-10-17T10:05:37.140Z,16
2018-10-17T10:10:39.616Z,17
2018-10-17T10:15:42.198Z,16
2018-10-17T10:20:44.464Z,17
2018-10-17T10:25:46.985Z,17
2018-10-17T10:30:49.332Z,17
2018-10-17T10:35:51.833Z,17
2018-10-17T10:40:54.237Z,16
2018-10-17T10:45:56.674Z,16
2018-10-17T10:50:59.150Z,15
2018-10-17T10:56:01.574Z,16
2018-10-17T11:01:03.989Z,16
2018-10-17T11:06:06.417Z,16
2018-10-17T11:11:08.930Z,16
2018-10-17T11:16:11.313Z,16
2018-10-17T11:21:13.827Z,15
2018-10-17T11:26:16.183Z,15
2018-10-17T11:31:18.643Z,16
2018-10-17T11:36:21.061Z,14
2018-10-17T11:41:23.665Z,14
2018-10-17T11:46:25.959Z,15
2018-10-17T11:51:28.390Z,16
2018-10-17T11:56:30.837Z,16
2018-10-17T12:01:33.295Z,15
2018-10-17T12:06:35.802Z,14
2018-10-17T12:11:38.215Z,14
2018-10-17T12:16:40.619Z,13
2018-10-17T12:21:43.046Z,13
2018-10-17T12:26:45.500Z,13
2018-10-17T12:31:47.955Z,14
2018-10-17T12:36:50.372Z,13
2018-10-17T12:41:52.830Z,14
2018-10-17T12:46:55.292Z,16
2018-10-17T12:51:57.722Z,15
2018-10-17T12:57:00.150Z,15
2018-10-17T13:02:02.613Z,12
2018-10-17T13:07:05.063Z,13
2018-10-17T13:12:07.478Z,14
2018-10-17T13:17:10.001Z,14
2018-10-17T13:22:12.391Z,14
2018-10-17T13:27:14.793Z,16
2018-10-17T13:32:17.346Z,14
2018-10-17T13:37:19.827Z,14
2018-10-17T13:42:22.125Z,14
2018-10-17T13:47:24.570Z,14
2018-10-17T13:52:27.011Z,14
2018-10-17T13:57:29.456Z,13
2018-10-17T14:02:31.927Z,14
2018-10-17T14:07:34.343Z,14
2018-10-17T14:12:36.791Z,13
2018-10-17T14:17:39.230Z,14
2018-10-17T14:22:41.658Z,12
2018-10-17T14:27:44.104Z,13
2018-10-17T14:32:46.655Z,13
2018-10-17T14:37:49.017Z,14
2018-10-17T14:42:51.436Z,13
2018-10-17T14:47:53.929Z,14
2018-10-17T14:52:56.356Z,14
2018-10-17T14:57:58.782Z,13
2018-10-17T15:03:01.229Z,12
2018-10-17T15:08:03.642Z,11
2018-10-17T15:13:06.091Z,10
2018-10-17T15:18:08.691Z,10
2018-10-17T15:23:10.975Z,10
2018-10-17T15:28:13.413Z,10
2018-10-17T15:33:15.909Z,11
2018-10-17T15:38:18.292Z,10
2018-10-17T15:43:20.846Z,11
2018-10-17T15:48:23.168Z,10
2018-10-17T15:53:25.620Z,12
2018-10-17T15:58:28.055Z,12
2018-10-17T16:03:30.530Z,14
2018-10-17T16:08:32.946Z,14
2018-10-17T16:13:35.582Z,12
2018-10-17T16:18:37.821Z,14
2018-10-17T16:23:40.265Z,13
2018-10-17T16:28:42.769Z,13
2018-10-17T16:33:45.793Z,13
2018-10-17T16:38:47.578Z,14
2018-10-17T16:43:50.021Z,14
2018-10-17T16:48:52.466Z,16
2018-10-17T16:53:55.011Z,15
2018-10-17T16:58:57.351Z,17
2018-10-17T17:03:59.789Z,18
2018-10-17T17:09:02.261Z,17
2018-10-17T17:14:04.668Z,17
2018-10-17T17:19:07.108Z,18
2018-10-17T17:24:09.629Z,18
2018-10-17T17:29:12.021Z,18
2018-10-17T17:34:14.459Z,20
2018-10-17T17:39:16.909Z,19
2018-10-17T17:44:19.313Z,20
2018-10-17T17:49:21.749Z,21
2018-10-17T17:54:24.287Z,24
2018-10-17T17:59:26.621Z,26
2018-10-17T18:04:29.260Z,24
2018-10-17T18:09:31.507Z,22
2018-10-17T18:14:33.958Z,24
2018-10-17T18:19:36.383Z,28
2018-10-17T18:24:38.862Z,28
2018-10-17T18:29:41.280Z,31
2018-10-17T18:34:43.730Z,50
2018-10-17T18:39:46.242Z,55
2018-10-17T18:44:48.632Z,42
2018-10-17T18:49:51.052Z,62
2018-10-17T18:54:53.476Z,41
2018-10-17T18:59:55.927Z,40
2018-10-17T19:04:58.349Z,50
2018-10-17T19:10:00.803Z,57
2018-10-17T19:15:03.281Z,45
2018-10-17T19:20:05.685Z,40
2018-10-17T19:25:08.114Z,41
2018-10-17T19:30:10.650Z,40
2018-10-17T19:35:12.991Z,40
2018-10-17T19:40:15.460Z,43
2018-10-17T19:45:18.044Z,34
2018-10-17T19:50:20.330Z,33
2018-10-17T19:55:22.793Z,34
2018-10-17T20:00:25.190Z,32
2018-10-17T20:05:27.641Z,34
2018-10-17T20:10:30.070Z,35
2018-10-17T20:15:32.592Z,34
2018-10-17T20:20:34.962Z,32
2018-10-17T20:25:37.408Z,30
2018-10-17T20:30:39.832Z,27
2018-10-17T20:35:42.289Z,29
2018-10-17T20:40:44.724Z,29
2018-10-17T20:45:47.151Z,28
2018-10-17T20:50:49.704Z,31
2018-10-17T20:55:52.048Z,31
2018-10-17T21:00:54.476Z,30
2018-10-17T21:05:56.928Z,30
2018-10-17T21:10:59.353Z,30
2018-10-17T21:16:01.872Z,30
2018-10-17T21:21:04.255Z,30
2018-10-17T21:26:06.711Z,31
2018-10-17T21:31:09.119Z,29
2018-10-17T21:36:11.560Z,31
2018-10-17T21:41:13.995Z,29
2018-10-17T21:51:18.892Z,29
2018-10-17T21:56:21.321Z,31
2018-10-17T22:01:23.744Z,29
2018-10-17T22:06:26.207Z,27
2018-10-17T22:11:28.625Z,30
2018-10-17T22:16:31.074Z,29
2018-10-17T22:21:33.511Z,29
2018-10-17T22:26:35.973Z,27
2018-10-17T22:31:38.397Z,30
2018-10-17T22:36:40.844Z,28
2018-10-17T22:41:43.361Z,28
2018-10-17T22:46:45.780Z,27
2018-10-17T22:51:48.167Z,30
2018-10-17T22:56:50.611Z,29
2018-10-17T23:01:53.065Z,28
2018-10-17T23:06:55.470Z,28
2018-10-17T23:11:57.911Z,25
2018-10-17T23:17:00.358Z,27
2018-10-17T23:22:02.811Z,26
2018-10-17T23:27:05.238Z,24
2018-10-17T23:32:07.749Z,26
2018-10-17T23:37:10.133Z,27
2018-10-17T23:42:12.642Z,28
2018-10-17T23:47:15.074Z,28
2018-10-17T23:52:17.695Z,26
2018-10-17T23:57:20.022Z,27
